Time;durP1;ratioP1;P1;durP2;ratioP2;P2;SDS_P1;SDS_P2;PMS_P1;PMS_P2;Temp;Humidity;BMP_temperature;BMP_pressure;BME280_temperature;BME280_humidity;BME280_pressure;Samples;Min_cycle;Max_cycle;Signal;HPM_P1;HPM_P2
2022/06/06 00:01:56;;;;;;;6.72;3.53;;;17.70;99.90;;;17.63;100.00;100611.25;5013629;28;20053;-80
2022/06/06 00:04:27;;;;;;;5.45;3.83;;;17.70;99.90;;;17.65;100.00;100613.84;5013886;28;20514;-79
2022/06/06 00:06:56;;;;;;;;;;;17.70;99.90;;;17.72;100.00;100612.59;5031301;28;20059;-79
2022/06/06 00:09:24;;;;;;;9.43;4.72;;;17.70;99.90;;;17.72;100.00;100609.94;5029516;28;20317;-79
2022/06/06 00:11:54;;;;;;;5.75;4.03;;;17.70;99.90;;;17.66;100.00;100610.22;5026778;28;20096;-79
2022/06/06 00:14:22;;;;;;;4.60;3.50;;;17.70;99.90;;;17.71;100.00;100606.41;5009978;28;20061;-80
2022/06/06 00:16:49;;;;;;;4.75;4.25;;;17.70;99.90;;;17.69;100.00;100608.28;5011313;28;20714;-80
2022/06/06 00:19:16;;;;;;;4.75;4.25;;;17.70;99.90;;;17.69;100.00;100615.41;4992388;28;20046;-79
2022/06/06 00:21:43;;;;;;;4.85;3.83;;;17.90;99.90;;;17.69;100.00;100612.72;4994816;28;20073;-80
2022/06/06 00:24:11;;;;;;;4.25;3.83;;;17.70;99.90;;;17.74;100.00;100609.84;5009447;28;20056;-80
2022/06/06 00:26:39;;;;;;;6.03;4.00;;;17.70;99.90;;;17.69;100.00;100618.06;4994043;28;20101;-80
2022/06/06 00:29:10;;;;;;;6.95;4.35;;;17.70;99.90;;;17.67;100.00;100607.50;5009536;28;20136;-81
2022/06/06 00:37:12;;;;;;;7.10;4.88;;;17.60;99.90;;;17.61;100.00;100599.81;5030296;28;20426;-80
2022/06/06 00:39:42;;;;;;;5.55;4.57;;;17.60;99.90;;;17.55;100.00;100592.16;5028909;28;20060;-81
2022/06/06 00:42:38;;;;;;;7.63;5.13;;;17.60;99.90;;;17.55;100.00;100595.66;5031065;28;20044;-82
2022/06/06 00:45:21;;;;;;;5.88;4.93;;;18.00;99.90;;;17.54;100.00;100585.97;5044361;28;20060;-79
2022/06/06 00:48:14;;;;;;;6.93;5.55;;;17.50;99.90;;;17.51;100.00;100591.44;5011207;28;20125;-80
2022/06/06 00:51:07;;;;;;;7.75;5.55;;;17.60;99.90;;;17.52;100.00;100587.00;5011029;28;20073;-80
2022/06/06 00:53:51;;;;;;;8.82;5.47;;;17.50;99.90;;;17.51;100.00;100594.09;5014703;28;20273;-80
2022/06/06 00:56:44;;;;;;;6.20;5.40;;;17.50;99.90;;;17.50;100.00;100581.72;5014800;28;20107;-81
2022/06/06 00:59:23;;;;;;;5.85;5.28;;;17.50;99.90;;;17.53;100.00;100580.72;5011536;28;20050;-81
2022/06/06 01:01:51;;;;;;;7.82;5.50;;;17.50;99.90;;;17.50;100.00;100578.22;4994876;28;20497;-80
2022/06/06 01:04:21;;;;;;;5.88;5.28;;;17.50;99.90;;;17.43;100.00;100565.22;5009743;28;20089;-79
2022/06/06 01:06:48;;;;;;;6.78;5.25;;;17.50;99.90;;;17.49;100.00;100576.50;5010352;28;20057;-80
2022/06/06 01:09:18;;;;;;;8.27;5.43;;;17.50;99.90;;;17.51;100.00;100579.94;5010000;28;20085;-81
2022/06/06 01:11:55;;;;;;;6.55;5.68;;;17.50;99.90;;;17.50;100.00;100573.75;4996976;28;20096;-81
2022/06/06 01:14:25;;;;;;;8.07;5.50;;;17.50;99.90;;;17.44;100.00;100558.13;5028943;28;20104;-80
2022/06/06 01:17:13;;;;;;;7.65;5.28;;;17.40;99.90;;;17.50;100.00;100564.94;5029887;28;20236;-79
2022/06/06 01:19:59;;;;;;;11.02;6.03;;;17.50;99.90;;;17.50;100.00;100559.59;5012619;28;20490;-79
2022/06/06 01:23:08;;;;;;;6.30;4.80;;;17.50;99.90;;;17.51;100.00;100559.50;5029808;28;20056;-79
2022/06/06 01:25:56;;;;;;;10.65;5.80;;;17.50;99.90;;;17.55;100.00;100553.09;5013706;28;20049;-80
2022/06/06 01:28:45;;;;;;;7.40;5.68;;;17.50;99.90;;;17.55;100.00;100547.78;5014258;28;20049;-80
2022/06/06 01:32:10;;;;;;;6.60;5.90;;;17.50;99.90;;;17.54;100.00;100556.69;5012686;28;20049;-81
2022/06/06 01:34:43;;;;;;;6.30;5.65;;;17.40;99.90;;;17.56;100.00;100554.84;5005574;28;20059;-81
2022/06/06 01:37:26;;;;;;;9.95;6.53;;;17.40;99.90;;;17.49;100.00;100553.41;5014185;28;20402;-81
2022/06/06 01:39:55;;;;;;;6.75;5.90;;;17.50;99.90;;;17.45;100.00;100554.50;5028007;28;20414;-80
2022/06/06 01:43:10;;;;;;;8.90;5.70;;;17.40;99.90;;;17.47;100.00;100546.44;5005126;28;20037;-80
2022/06/06 01:45:52;;;;;;;6.18;5.63;;;17.40;99.90;;;17.49;100.00;100547.25;5000447;28;20050;-80
2022/06/06 01:48:27;;;;;;;6.20;5.70;;;17.90;99.90;;;17.43;100.00;100548.41;5025670;28;20077;-81
2022/06/06 01:50:54;;;;;;;6.80;5.85;;;17.40;99.90;;;17.39;100.00;100544.16;5009176;28;20511;-81
2022/06/06 01:53:24;;;;;;;7.10;6.30;;;17.40;99.90;;;17.35;100.00;100546.13;4993770;28;20050;-80
2022/06/06 01:55:53;;;;;;;10.77;5.85;;;17.30;99.90;;;17.32;100.00;100540.09;5009980;28;20803;-81
2022/06/06 01:58:27;;;;;;;6.53;5.75;;;17.40;99.90;;;17.37;100.00;100544.25;5010002;28;20050;-81
2022/06/06 02:00:54;;;;;;;7.50;5.65;;;17.40;99.90;;;17.34;100.00;100536.44;5009089;28;20045;-80
2022/06/06 02:03:22;;;;;;;8.60;6.55;;;17.40;99.90;;;17.37;100.00;100548.69;4993529;28;20530;-79
2022/06/06 02:05:50;;;;;;;8.65;6.07;;;17.40;99.90;;;17.31;100.00;100541.88;5010517;28;20458;-81
2022/06/06 02:08:17;;;;;;;8.38;6.25;;;17.40;99.90;;;17.32;100.00;100553.41;5010163;28;20512;-80
2022/06/06 02:10:44;;;;;;;6.90;5.47;;;17.30;99.90;;;17.31;100.00;100543.69;4993439;28;20096;-81
2022/06/06 02:13:13;;;;;;;8.30;6.15;;;17.40;99.90;;;17.34;100.00;100548.84;4994027;28;20773;-79
2022/06/06 02:15:41;;;;;;;7.15;6.30;;;17.40;99.90;;;17.34;100.00;100555.06;4994677;28;20050;-81
2022/06/06 02:18:08;;;;;;;7.88;6.20;;;17.30;99.90;;;17.29;100.00;100547.28;4995022;28;20057;-81
2022/06/06 02:20:35;;;;;;;7.85;6.32;;;17.30;99.90;;;17.28;100.00;100558.00;5010296;28;20125;-82
2022/06/06 02:23:03;;;;;;;7.35;6.18;;;17.30;99.90;;;17.33;100.00;100553.34;4994779;28;20045;-80
2022/06/06 02:25:32;;;;;;;7.22;6.63;;;17.30;99.90;;;17.35;100.00;100548.78;5003926;28;20042;-80
2022/06/06 02:28:01;;;;;;;6.88;6.15;;;17.40;99.90;;;17.35;100.00;100540.81;5014036;28;20042;-81
2022/06/06 02:30:33;;;;;;;10.38;5.90;;;17.40;99.90;;;17.33;100.00;100533.84;5011935;28;20053;-81
2022/06/06 02:33:00;;;;;;;7.03;6.32;;;17.40;99.90;;;17.33;100.00;100549.78;5012947;28;20053;-81
2022/06/06 02:35:36;;;;;;;6.93;6.22;;;17.30;99.90;;;17.36;100.00;100552.31;5012762;28;20413;-81
2022/06/06 02:38:03;;;;;;;8.48;6.65;;;17.40;99.90;;;17.32;100.00;100548.91;5017050;28;20515;-79
2022/06/06 02:40:31;;;;;;;7.22;5.75;;;17.30;99.90;;;17.29;100.00;100547.28;5029461;28;20128;-81
2022/06/06 02:42:59;;;;;;;6.43;5.82;;;17.30;99.90;;;17.22;100.00;100551.19;5040021;28;20056;-80
2022/06/06 02:45:26;;;;;;;6.75;5.88;;;17.30;99.90;;;17.22;100.00;100537.88;5019124;28;20152;-80
2022/06/06 02:47:57;;;;;;;7.53;6.82;;;17.30;99.90;;;17.24;100.00;100543.13;5048329;28;20079;-79
2022/06/06 02:50:30;;;;;;;7.72;6.40;;;17.30;99.90;;;17.24;100.00;100543.13;5046681;28;20637;-80
2022/06/06 02:52:59;;;;;;;7.95;7.15;;;17.30;99.90;;;17.22;100.00;100553.00;5015014;28;20080;-79
2022/06/06 02:55:26;;;;;;;9.70;6.95;;;17.20;99.90;;;17.27;100.00;100535.88;5030822;28;20072;-81
2022/06/06 02:57:54;;;;;;;9.07;6.97;;;17.30;99.90;;;17.24;100.00;100545.78;5035716;28;20060;-81
2022/06/06 03:00:27;;;;;;;8.40;6.03;;;17.30;99.90;;;17.28;100.00;100550.91;5037505;28;20045;-79
2022/06/06 03:02:54;;;;;;;7.65;6.93;;;17.30;99.90;;;17.25;100.00;100556.38;5055460;28;20037;-80
2022/06/06 03:05:25;;;;;;;8.63;6.68;;;17.60;99.90;;;17.17;100.00;100547.91;5037929;28;20764;-79
2022/06/06 03:08:12;;;;;;;10.70;7.00;;;17.20;99.90;;;17.27;100.00;100554.50;5055590;28;20059;-80
2022/06/06 03:10:39;;;;;;;9.05;7.18;;;17.30;99.90;;;17.23;100.00;100560.88;5053738;28;20057;-81
2022/06/06 03:13:55;;;;;;;7.95;7.18;;;17.20;99.90;;;17.21;100.00;100568.06;5041309;28;20049;-80
2022/06/06 03:23:28;;;;;;;12.32;6.72;;;17.20;99.90;;;17.22;100.00;100569.78;5019952;28;20042;-80
2022/06/06 03:26:32;;;;;;;9.13;7.63;;;17.10;99.90;;;17.24;100.00;100562.59;5035966;28;20045;-80
2022/06/06 03:29:26;;;;;;;8.00;6.75;;;17.10;99.90;;;17.23;100.00;100571.50;5015228;28;20046;-80
2022/06/06 03:32:27;;;;;;;7.93;7.13;;;17.10;99.90;;;17.27;100.00;100564.25;5032531;28;20727;-81
2022/06/06 03:35:33;;;;;;;8.15;7.45;;;17.10;99.90;;;17.25;100.00;100564.34;5032623;28;20061;-81
2022/06/06 03:38:15;;;;;;;9.77;7.10;;;17.10;99.90;;;17.21;100.00;100570.72;5001507;28;20049;-80
2022/06/06 03:41:20;;;;;;;8.93;8.00;;;17.10;99.90;;;17.21;100.00;100570.72;5016608;28;20527;-80
2022/06/06 03:44:14;;;;;;;10.63;7.80;;;17.10;99.90;;;17.23;100.00;100573.31;5021441;28;20136;-79
2022/06/06 03:47:03;;;;;;;8.88;7.68;;;17.30;99.90;;;17.20;100.00;100584.13;5036550;28;20045;-79
2022/06/06 03:49:59;;;;;;;8.75;7.30;;;17.00;99.90;;;17.18;100.00;100581.50;5033724;28;20041;-79
2022/06/06 03:52:34;;;;;;;8.93;7.10;;;17.10;99.90;;;17.22;100.00;100587.56;5050583;28;20564;-79
2022/06/06 03:55:16;;;;;;;7.30;6.60;;;17.10;99.90;;;17.26;100.00;100591.78;5033145;28;20049;-79
2022/06/06 03:57:46;;;;;;;9.15;7.35;;;17.10;99.90;;;17.13;100.00;100591.53;5017200;28;20056;-80
2022/06/06 04:00:15;;;;;;;9.40;6.57;;;17.10;99.90;;;17.19;100.00;100590.38;5033209;28;20056;-79
2022/06/06 04:02:45;;;;;;;7.78;6.25;;;17.10;99.90;;;17.18;100.00;100586.00;5031880;28;20042;-81
2022/06/06 04:05:17;;;;;;;7.35;6.65;;;17.10;99.90;;;17.31;100.00;100596.88;5033923;28;20049;-78
2022/06/06 04:07:44;;;;;;;10.20;7.40;;;17.20;99.90;;;17.23;100.00;100591.94;5051580;28;20276;-80
2022/06/06 04:10:13;;;;;;;8.07;6.93;;;17.20;99.90;;;17.28;100.00;100585.47;5014199;28;20042;-80
2022/06/06 04:13:31;;;;;;;7.70;6.38;;;17.20;99.90;;;17.42;100.00;100594.56;5042221;28;20041;-80
2022/06/06 04:16:19;;;;;;;7.13;6.47;;;17.20;99.90;;;17.43;100.00;100596.28;4972156;28;20046;-80
2022/06/06 04:19:23;;;;;;;6.72;6.13;;;17.30;99.90;;;17.49;100.00;100598.63;4943135;28;20511;-80
2022/06/06 04:22:26;;;;;;;10.52;6.43;;;17.30;99.90;;;17.44;100.00;100590.88;5032395;28;20077;-81
2022/06/06 04:25:22;;;;;;;7.68;6.47;;;17.30;99.90;;;17.51;100.00;100588.78;5012448;28;20146;-80
2022/06/06 04:28:01;;;;;;;9.82;6.90;;;17.40;99.90;;;17.53;100.00;100594.03;5012435;28;20050;-80
2022/06/06 04:31:13;;;;;;;9.90;6.30;;;17.40;99.90;;;17.61;100.00;100596.31;5011825;28;20046;-80
2022/06/06 04:34:36;;;;;;;7.63;5.85;;;17.40;99.90;;;17.61;100.00;100577.69;5029673;28;20173;-80
2022/06/06 04:37:18;;;;;;;7.32;6.18;;;17.50;99.90;;;17.59;100.00;100583.06;4997517;28;20410;-80
2022/06/06 04:40:38;;;;;;;8.15;6.28;;;17.50;99.90;;;17.66;100.00;100581.84;5032698;28;20044;-80
2022/06/06 04:43:22;;;;;;;;;;;17.50;99.90;;;17.69;100.00;100575.47;5037724;28;20045;-79
2022/06/06 04:46:32;;;;;;;7.28;6.50;;;17.50;99.90;;;17.78;100.00;100584.78;5015628;28;19928;-79
2022/06/06 04:49:01;;;;;;;6.28;5.60;;;17.50;99.90;;;17.75;100.00;100580.50;5031451;28;20140;-79
2022/06/06 04:51:31;;;;;;;8.68;6.35;;;17.60;99.90;;;17.81;100.00;100580.19;5030020;28;20048;-81
2022/06/06 04:54:00;;;;;;;6.78;6.10;;;17.90;99.90;;;17.82;100.00;100586.38;5030090;28;20059;-80
2022/06/06 04:56:27;;;;;;;8.43;5.88;;;17.70;99.90;;;17.86;100.00;100588.78;5013803;28;20589;-79
2022/06/06 04:59:00;;;;;;;6.20;5.05;;;18.30;99.90;;;17.93;100.00;100591.16;5046140;28;20041;-79
2022/06/06 05:01:27;;;;;;;12.05;6.57;;;17.70;99.90;;;17.92;100.00;100594.75;5029333;28;20046;-79
2022/06/06 05:03:55;;;;;;;9.40;6.13;;;17.80;99.90;;;18.00;100.00;100604.06;5029063;28;20049;-80
2022/06/06 05:06:43;;;;;;;9.35;6.47;;;17.80;99.90;;;18.04;100.00;100591.50;5028806;28;20132;-79
2022/06/06 05:09:30;;;;;;;10.38;5.32;;;17.80;99.90;;;18.09;100.00;100584.13;5029398;28;20084;-80
2022/06/06 05:12:14;;;;;;;6.10;5.50;;;17.90;99.90;;;18.11;100.00;100582.25;5017435;28;20061;-79
2022/06/06 05:15:12;;;;;;;7.22;6.20;;;17.90;99.90;;;18.21;100.00;100587.94;5029669;28;20144;-80
2022/06/06 05:18:22;;;;;;;6.90;6.15;;;18.00;99.90;;;18.23;100.00;100579.88;5031134;28;20117;-79
2022/06/06 05:21:29;;;;;;;7.20;6.32;;;18.00;99.90;;;18.31;100.00;100588.31;5029266;28;20644;-79
2022/06/06 05:24:11;;;;;;;6.38;5.30;;;18.10;99.90;;;18.36;100.00;100578.28;5029598;28;20151;-79
2022/06/06 05:27:19;;;;;;;6.45;5.63;;;18.10;99.90;;;18.39;100.00;100583.44;5038127;28;20398;-80
2022/06/06 05:30:20;;;;;;;9.18;5.45;;;18.20;99.90;;;18.45;100.00;100586.72;5034942;28;20033;-80
2022/06/06 05:33:18;;;;;;;8.30;5.65;;;18.20;99.90;;;18.41;100.00;100578.03;5035911;28;20060;-82
2022/06/06 05:36:13;;;;;;;5.78;5.18;;;18.30;99.90;;;18.44;100.00;100572.56;5030269;28;20077;-81
2022/06/06 05:39:20;;;;;;;6.25;5.25;;;18.30;99.90;;;18.53;100.00;100588.03;5015594;28;20037;-79
2022/06/06 05:41:59;;;;;;;6.30;5.47;;;18.30;99.90;;;18.59;100.00;100584.16;5036913;28;20049;-79
2022/06/06 05:44:42;;;;;;;6.07;5.15;;;18.60;99.90;;;18.60;100.00;100585.88;5039452;28;20399;-80
2022/06/06 05:47:57;;;;;;;7.00;5.38;;;18.40;99.90;;;18.62;100.00;100589.31;5021735;28;20422;-81
2022/06/06 05:50:30;;;;;;;6.25;5.65;;;18.50;99.90;;;18.65;100.00;100590.97;5006916;28;20648;-80
2022/06/06 05:53:38;;;;;;;7.10;5.38;;;18.50;99.90;;;18.74;100.00;100592.28;5040492;28;20144;-82
2022/06/06 05:56:19;;;;;;;6.90;5.47;;;18.60;99.90;;;18.73;100.00;100596.72;5040967;28;20049;-82
2022/06/06 05:59:19;;;;;;;6.78;5.05;;;18.60;99.90;;;18.82;100.00;100611.38;5024367;28;20040;-82
2022/06/06 06:02:29;;;;;;;5.53;4.78;;;18.60;99.90;;;18.87;100.00;100617.31;5041864;28;20050;-82
2022/06/06 06:05:39;;;;;;;5.63;5.03;;;18.70;99.90;;;18.86;100.00;100620.94;5038359;28;20096;-82
2022/06/06 06:08:47;;;;;;;8.00;5.30;;;18.70;99.90;;;18.97;100.00;100628.31;5011530;28;20160;-82
2022/06/06 06:12:02;;;;;;;6.53;4.82;;;18.70;99.90;;;18.90;100.00;100641.13;5040276;28;20048;-81
2022/06/06 06:14:47;;;;;;;6.45;5.45;;;18.70;99.90;;;18.87;100.00;100643.97;5043079;28;20109;-82
2022/06/06 06:17:21;;;;;;;4.72;4.13;;;18.80;99.90;;;18.89;100.00;100646.53;5039706;28;20049;-80
2022/06/06 06:19:57;;;;;;;5.50;4.57;;;18.80;99.90;;;18.96;100.00;100651.44;5040323;28;20042;-80
2022/06/06 06:22:27;;;;;;;5.55;5.05;;;18.80;99.90;;;18.93;100.00;100654.28;5040407;28;20041;-81
2022/06/06 06:24:56;;;;;;;;;;;18.80;99.90;;;18.97;100.00;100657.66;5035272;28;20109;-82
2022/06/06 06:27:26;;;;;;;6.93;5.00;;;18.80;99.90;;;18.96;100.00;100661.25;5035642;28;19909;-81
2022/06/06 06:29:53;;;;;;;6.30;5.70;;;18.80;99.90;;;19.01;100.00;100661.91;5046290;28;20026;-81
2022/06/06 06:32:44;;;;;;;6.35;4.78;;;18.00;99.90;;;18.97;100.00;100660.31;5030024;28;20064;-81
2022/06/06 06:35:17;;;;;;;7.75;4.97;;;18.90;99.90;;;19.06;100.00;100666.97;5034303;28;20049;-78
2022/06/06 06:38:15;;;;;;;6.40;4.78;;;18.90;99.90;;;19.12;100.00;100659.50;5023352;28;20053;-78
2022/06/06 06:41:23;;;;;;;6.80;5.47;;;18.90;99.90;;;19.16;100.00;100662.88;5010919;28;20081;-79
2022/06/06 06:44:08;;;;;;;7.72;5.28;;;19.00;99.90;;;19.13;100.00;100663.88;4993525;28;20042;-79
2022/06/06 06:46:57;;;;;;;6.68;4.93;;;19.00;99.90;;;19.22;100.00;100672.34;5010465;28;20073;-79
2022/06/06 06:49:39;;;;;;;6.30;4.95;;;19.10;99.90;;;19.34;100.00;100662.78;5013911;28;20068;-79
2022/06/06 06:52:35;;;;;;;5.30;4.43;;;19.10;99.90;;;19.41;100.00;100673.03;5012112;28;20121;-79
2022/06/06 06:55:08;;;;;;;7.43;4.82;;;19.10;99.90;;;19.40;100.00;100675.75;4990170;28;20054;-78
2022/06/06 06:58:37;;;;;;;7.93;5.43;;;19.20;99.90;;;19.48;100.00;100676.22;5008282;28;20073;-78
2022/06/06 07:01:12;;;;;;;5.80;4.80;;;19.30;99.90;;;19.46;100.00;100672.78;4951374;29;20083;-79
2022/06/06 07:10:29;;;;;;;5.25;4.18;;;19.30;99.90;;;19.53;100.00;100663.44;5015368;28;20121;-80
2022/06/06 07:13:19;;;;;;;11.73;5.38;;;19.30;99.90;;;19.46;100.00;100669.22;5026147;28;20049;-80
2022/06/06 07:16:28;;;;;;;5.82;4.88;;;19.40;99.90;;;19.49;100.00;100669.91;5035375;28;20111;-79
2022/06/06 07:19:02;;;;;;;8.07;4.90;;;19.30;99.90;;;19.47;100.00;100663.81;5040095;28;20085;-79
2022/06/06 07:21:32;;;;;;;7.90;5.80;;;19.30;99.90;;;19.39;100.00;100663.38;5008169;28;20049;-79
2022/06/06 07:24:05;;;;;;;6.22;4.90;;;19.30;99.90;;;19.37;100.00;100666.16;4990068;28;20486;-78
2022/06/06 07:26:41;;;;;;;6.88;4.50;;;19.30;99.90;;;19.35;100.00;100668.00;5007483;28;20072;-78
2022/06/06 07:29:19;;;;;;;9.30;4.93;;;19.30;99.90;;;19.40;100.00;100673.97;5009132;28;20045;-78
2022/06/06 07:32:17;;;;;;;5.82;4.65;;;19.30;99.90;;;19.49;100.00;100672.59;4994417;28;20116;-78
2022/06/06 07:35:07;;;;;;;5.43;4.80;;;19.30;99.90;;;19.48;100.00;100684.22;5013046;28;20045;-78
2022/06/06 07:38:12;;;;;;;5.07;4.50;;;19.30;99.90;;;19.50;100.00;100684.97;4990071;28;20395;-78
2022/06/06 07:40:53;;;;;;;6.43;4.60;;;19.30;99.90;;;19.46;100.00;100686.13;5008976;28;20069;-78
2022/06/06 07:43:27;;;;;;;8.32;5.60;;;19.30;99.90;;;19.42;100.00;100673.88;5015999;28;20041;-78
2022/06/06 07:46:42;;;;;;;5.88;5.35;;;19.40;99.90;;;19.49;100.00;100675.25;4989070;28;20042;-76
2022/06/06 07:49:42;;;;;;;6.20;5.40;;;19.30;99.90;;;19.57;100.00;100669.47;5009748;28;20053;-78
2022/06/06 07:52:35;;;;;;;6.97;5.53;;;19.40;99.90;;;19.55;100.00;100672.22;5026739;28;20545;-79
2022/06/06 07:55:22;;;;;;;6.43;5.53;;;19.40;99.90;;;19.54;100.00;100659.84;5034454;28;20099;-79
2022/06/06 07:58:27;;;;;;;8.35;5.68;;;19.40;99.90;;;19.61;100.00;100654.16;5016546;28;20046;-80
2022/06/06 08:01:53;;;;;;;7.90;5.78;;;19.40;99.90;;;19.72;100.00;100651.72;5032977;28;20053;-81
2022/06/06 08:04:48;;;;;;;7.63;6.28;;;19.50;99.90;;;19.69;100.00;100651.91;5015156;28;20064;-80
2022/06/06 08:07:39;;;;;;;7.00;5.63;;;19.60;99.90;;;19.82;100.00;100646.69;5028529;28;20046;-74
2022/06/06 08:10:18;;;;;;;;;;;19.70;99.90;;;19.88;100.00;100642.81;5028454;28;20128;-74
2022/06/06 08:13:54;;;;;;;10.80;6.10;;;19.70;99.90;;;19.95;100.00;100628.19;5028017;28;20301;-74
2022/06/06 08:16:47;;;;;;;6.35;5.70;;;19.70;99.90;;;20.06;100.00;100633.75;5032407;28;20108;-78
2022/06/06 08:19:45;;;;;;;6.78;5.32;;;19.80;99.90;;;20.34;100.00;100628.56;5040964;28;20145;-78
2022/06/06 08:22:12;;;;;;;10.55;5.82;;;20.00;99.90;;;20.36;100.00;100630.16;5042080;28;20045;-78
2022/06/06 08:24:45;;;;;;;6.38;4.88;;;20.10;99.90;;;20.58;100.00;100625.31;5030751;28;20493;-78
2022/06/06 08:27:28;;;;;;;5.68;5.15;;;20.30;99.90;;;20.73;100.00;100620.81;5030399;28;20041;-78
2022/06/06 08:29:58;;;;;;;10.35;5.70;;;20.50;99.90;;;20.77;100.00;100622.34;5021702;28;20046;-77
2022/06/06 08:32:25;;;;;;;7.82;5.25;;;20.50;99.90;;;20.90;100.00;100625.13;5013300;28;20757;-77
2022/06/06 08:34:57;;;;;;;4.97;4.55;;;20.60;99.90;;;21.11;100.00;100612.19;5028273;28;20056;-77
2022/06/06 08:38:05;;;;;;;5.22;3.90;;;20.70;99.90;;;21.02;100.00;100604.78;5011837;28;20414;-76
2022/06/06 08:40:50;;;;;;;5.60;4.03;;;20.80;99.10;;;21.22;100.00;100603.47;5029491;28;20045;-76
2022/06/06 08:43:58;;;;;;;5.95;3.58;;;21.00;99.10;;;21.31;100.00;100593.97;4996653;28;20056;-77
2022/06/06 08:47:03;;;;;;;4.05;3.65;;;21.10;98.40;;;21.63;100.00;100593.69;5008576;28;20044;-77
2022/06/06 08:53:33;;;;;;;5.38;3.33;;;21.40;97.80;;;21.74;100.00;100591.16;5009592;28;20054;-77
2022/06/06 08:56:22;;;;;;;5.32;3.72;;;21.40;97.90;;;21.75;100.00;100579.47;5011542;28;20042;-80
2022/06/06 08:59:13;;;;;;;5.03;4.10;;;21.50;98.30;;;21.67;100.00;100573.78;5015571;28;20049;-81
2022/06/06 09:02:24;;;;;;;5.47;3.60;;;21.60;97.60;;;21.81;100.00;100584.44;5030747;28;20045;-80
2022/06/06 09:05:47;;;;;;;5.18;3.22;;;21.60;97.60;;;22.08;100.00;100579.94;5030998;28;20113;-79
2022/06/06 09:08:52;;;;;;;4.90;3.08;;;21.60;97.70;;;21.96;100.00;100578.97;5030643;28;20610;-79
2022/06/06 09:12:04;;;;;;;5.40;3.00;;;21.70;97.10;;;21.75;100.00;100575.94;5010813;28;20060;-79
2022/06/06 09:15:27;;;;;;;6.63;3.72;;;21.60;97.00;;;21.81;100.00;100576.41;4946178;28;20566;-79
2022/06/06 09:18:35;;;;;;;3.90;3.47;;;21.60;97.10;;;21.67;100.00;100585.34;4994718;28;20072;-79
2022/06/06 09:21:05;;;;;;;5.95;3.17;;;21.60;96.80;;;21.64;100.00;100588.19;5029426;28;20049;-79
2022/06/06 09:24:12;;;;;;;4.22;3.22;;;21.50;96.70;;;21.95;100.00;100587.97;5031761;28;20049;-79
2022/06/06 09:27:04;;;;;;;4.20;2.80;;;21.60;96.90;;;22.03;100.00;100574.06;5031534;28;20045;-79
2022/06/06 09:30:00;;;;;;;4.85;3.40;;;21.70;96.60;;;22.14;100.00;100576.00;5014333;28;20084;-80
2022/06/06 09:32:52;;;;;;;3.72;2.88;;;21.90;96.50;;;22.34;100.00;100571.91;5049585;28;20185;-77
2022/06/06 09:35:45;;;;;;;3.58;2.67;;;22.00;96.30;;;22.53;100.00;100574.16;5029426;28;20808;-80
2022/06/06 09:38:41;;;;;;;4.22;3.13;;;22.20;96.10;;;22.52;100.00;100569.75;5027916;28;20044;-75
2022/06/06 09:41:40;;;;;;;3.28;2.72;;;22.20;95.90;;;22.59;100.00;100565.69;5016027;28;20119;-76
2022/06/06 09:44:57;;;;;;;7.05;2.97;;;22.30;95.60;;;22.52;100.00;100567.97;5028161;28;20076;-77
2022/06/06 09:48:02;;;;;;;2.83;2.60;;;22.30;95.40;;;22.54;100.00;100562.47;5027953;28;20072;-75
2022/06/06 09:51:18;;;;;;;5.20;2.88;;;22.30;95.60;;;22.35;100.00;100562.91;4982664;28;20503;-76
2022/06/06 10:01:09;;;;;;;3.25;2.58;;;22.40;95.10;;;22.93;100.00;100551.63;5029263;28;20418;-75
2022/06/06 10:04:10;;;;;;;4.07;3.10;;;22.50;94.80;;;23.10;100.00;100558.44;5029245;28;20068;-78
2022/06/06 10:07:03;;;;;;;6.75;2.90;;;22.70;93.80;;;23.20;91.88;100548.75;5032157;28;20046;-80
2022/06/06 10:10:05;;;;;;;4.00;2.58;;;22.90;92.90;;;23.27;98.82;100541.13;5034433;28;20111;-82
2022/06/06 10:13:05;;;;;;;4.13;2.40;;;23.00;93.60;;;23.04;100.00;100549.03;5013330;28;20054;-80
2022/06/06 10:15:38;;;;;;;;;;;23.00;93.60;;;;;;5017955;28;20061;-80
2022/06/06 10:18:37;;;;;;;4.57;3.20;;;22.80;93.80;;;23.16;100.00;100547.25;4944803;29;20350;-82
2022/06/06 10:21:20;;;;;;;10.18;3.38;;;22.90;94.20;;;23.14;100.00;100537.63;4934247;29;20063;-81
2022/06/06 10:24:54;;;;;;;4.25;2.70;;;23.00;93.80;;;23.37;100.00;100538.59;4951344;28;20132;-80
2022/06/06 10:27:50;;;;;;;6.18;3.38;;;23.00;93.90;;;23.09;100.00;100529.91;4898520;29;20152;-83
2022/06/06 10:30:31;;;;;;;4.88;2.97;;;23.10;93.60;;;22.97;100.00;100537.06;4949585;29;20167;-81
2022/06/06 10:33:21;;;;;;;4.22;2.88;;;23.00;93.70;;;22.76;100.00;100529.59;4947506;28;20556;-80
2022/06/06 10:35:54;;;;;;;7.50;3.88;;;22.80;93.80;;;23.08;100.00;100531.72;4970124;28;20510;-79
2022/06/06 10:39:03;;;;;;;4.22;3.08;;;22.80;94.30;;;22.91;100.00;100548.22;5011793;28;20053;-81
2022/06/06 10:42:22;;;;;;;5.35;3.47;;;22.80;93.60;;;23.31;100.00;100544.41;5027534;28;20049;-84
2022/06/06 10:45:13;;;;;;;6.85;3.22;;;22.80;94.10;;;23.46;100.00;100539.75;5012976;28;20053;-80
2022/06/06 10:48:13;;;;;;;3.92;3.53;;;23.00;94.10;;;23.44;99.73;100550.59;5030527;28;20042;-81
2022/06/06 10:54:06;;;;;;;8.50;4.00;;;23.20;93.20;;;23.73;92.54;100539.44;5030583;28;20378;-83
2022/06/06 10:57:29;;;;;;;7.07;3.83;;;23.30;92.90;;;23.60;86.78;100531.50;5036246;28;20050;-79
2022/06/06 11:00:20;;;;;;;5.63;2.30;;;23.50;91.90;;;23.70;81.89;100518.19;5016532;28;20062;-82
2022/06/06 11:03:12;;;;;;;3.35;2.25;;;23.50;91.50;;;23.63;75.31;100515.13;5011431;28;20077;-79
2022/06/06 11:06:06;;;;;;;4.25;2.10;;;23.50;90.50;;;23.70;72.47;100518.19;4995373;28;20709;-81
2022/06/06 11:08:59;;;;;;;1.95;1.63;;;23.60;90.20;;;23.81;75.47;100506.63;5017466;28;20053;-81
2022/06/06 11:11:44;;;;;;;3.28;1.65;;;23.50;90.60;;;24.17;76.31;100493.97;5017889;28;20045;-77
2022/06/06 11:14:46;;;;;;;5.15;3.03;;;23.60;90.80;;;24.33;76.33;100498.97;5025555;28;20068;-79
2022/06/06 11:17:40;;;;;;;5.60;2.70;;;23.80;90.60;;;24.41;72.32;100506.44;5015258;28;20045;-79
2022/06/06 11:20:35;;;;;;;4.05;2.28;;;24.00;90.10;;;24.73;73.87;100483.25;5033941;28;20085;-79
2022/06/06 11:23:49;;;;;;;3.58;2.30;;;24.20;90.30;;;25.20;72.19;100497.31;5015429;28;20044;-79
2022/06/06 11:27:09;;;;;;;4.80;2.30;;;24.50;90.20;;;25.42;69.34;100511.66;5016047;28;20100;-78
2022/06/06 11:29:52;;;;;;;4.03;1.75;;;24.90;89.30;;;25.61;68.30;100494.81;5020956;28;20046;-79
2022/06/06 11:33:09;;;;;;;5.32;3.22;;;25.10;88.50;;;25.59;66.54;100504.84;5014503;28;20056;-78
2022/06/06 11:35:57;;;;;;;3.90;2.50;;;25.30;87.60;;;25.31;68.49;100506.31;5031124;28;20069;-78
2022/06/06 11:39:11;;;;;;;6.30;3.50;;;25.20;87.10;;;25.00;73.27;100531.31;5024276;28;20586;-78
2022/06/06 11:42:24;;;;;;;3.15;1.67;;;25.00;87.60;;;24.40;83.77;100531.59;5026724;28;20140;-79
2022/06/06 11:45:23;;;;;;;3.80;2.00;;;24.60;89.40;;;24.40;91.79;100517.28;5031651;28;20048;-79
2022/06/06 11:48:27;;;;;;;4.72;1.90;;;24.30;91.00;;;24.17;93.01;100510.09;5044779;28;20067;-79
2022/06/06 11:52:12;;;;;;;5.75;1.80;;;24.10;91.40;;;24.12;92.48;100515.00;5029758;28;20057;-78
2022/06/06 11:55:24;;;;;;;6.03;1.42;;;23.90;91.10;;;24.17;94.85;100517.31;5000583;28;20061;-79
2022/06/06 11:58:15;;;;;;;1.88;1.70;;;23.90;91.80;;;24.18;92.02;100508.28;5033505;28;20141;-78
2022/06/06 12:01:20;;;;;;;2.92;1.73;;;23.80;91.60;;;24.07;93.26;100507.28;5035076;28;20466;-78
2022/06/06 12:04:33;;;;;;;3.67;2.33;;;23.90;91.50;;;24.00;95.24;100505.16;5033573;28;20210;-78
2022/06/06 12:07:54;;;;;;;2.03;1.80;;;23.90;91.80;;;23.50;96.38;100499.13;5036145;28;20798;-78